メインページ
METAR-TAF:

METAR-TAF

空港 :

ドバイ国際空港

ドバイ, アラブ首長国連邦

緯度: 25-15-10N, 経度: 055-21-52E, 海抜: 8m

現時点の気象観測

当レポートは14分前の18:00(UTC)に作成
の風 7kt、北東から南/南東の間で変化する
気温 25°C
湿度 47%
気圧 1017 hPa
視程10km以上
1,500メートル以下は雲なし、積乱雲なし

METAR: OMDB 171800Z 09007KT 050V150 CAVOK 25/13 Q1017 NOSIG

時間: 22:14 (18:14 UTC)

予報

当レポートは1時間24分前の16:50(UTC)に作成
予報は17日の 18時(UTC)から 19日の 00時(UTC)まで有効
の風 7kt
視程10km以上
1,500メートル以下は雲なし、積乱雲なし
18日の 09時(UTC)から 18日の 11時(UTC)まで徐々に
北/北西の風 12kt
18日の 15時(UTC)から 18日の 17時(UTC)まで徐々に
の風 8kt

TAF: OMDB 171650Z 1718/1900 10007KT CAVOK BECMG 1809/1811 34012KT BECMG 1815/1817 09008KT

4,000以上の空港の気象観測と天気予報(METAR報とTAF報)

利用可能な観測所は地図上に黄色い丸と赤い丸で示す。

丸の上にカーソルを重ねると観測所名を参照できる。

次にクリックすると気象観測と天気予報を参照できる。

マップの切り替え:黒色「×」印の緑ボタンをクリックして拡大、「-」印の緑ボタンをクリックして縮小、緑色の三角印をクリックして隣りの地図に切り替え


METAR-TAF: